Time;durP1;ratioP1;P1;durP2;ratioP2;P2;SDS_P1;SDS_P2;PMS_P1;PMS_P2;Temp;Humidity;BMP_temperature;BMP_pressure;BME280_temperature;BME280_humidity;BME280_pressure;Samples;Min_cycle;Max_cycle;Signal;HPM_P1;HPM_P2
2023/03/05 00:01:40;;;;;;;2.33;0.90;;;;;;;7.26;76.61;100924.66;1878014;75;21485;-48
2023/03/05 00:04:12;;;;;;;3.20;1.40;;;;;;;7.25;76.78;100911.16;1874991;75;21468;-48
2023/03/05 00:06:40;;;;;;;1.98;0.80;;;;;;;7.26;76.71;100925.96;1884173;75;21011;-48
2023/03/05 00:09:09;;;;;;;0.60;0.60;;;;;;;7.27;76.60;100922.47;1897380;75;21102;-50
2023/03/05 00:11:38;;;;;;;1.55;0.95;;;;;;;7.31;76.84;100925.88;1885928;75;21499;-46
2023/03/05 00:14:08;;;;;;;2.37;1.00;;;;;;;7.35;76.88;100919.66;1878444;75;21439;-48
2023/03/05 00:16:36;;;;;;;1.62;1.00;;;;;;;7.38;76.99;100914.79;1872626;75;21565;-48
2023/03/05 00:19:05;;;;;;;3.90;1.82;;;;;;;7.36;76.85;100905.69;1872631;75;21102;-51
2023/03/05 00:21:37;;;;;;;1.90;0.80;;;;;;;7.29;77.17;100915.43;1897900;75;21178;-51
2023/03/05 00:24:08;;;;;;;2.55;1.00;;;;;;;7.25;77.19;100909.85;1892435;74;21091;-45
2023/03/05 00:26:38;;;;;;;1.70;1.02;;;;;;;7.23;77.24;100902.91;1896069;75;21572;-49
2023/03/05 00:29:08;;;;;;;2.60;1.32;;;;;;;7.23;77.10;100905.10;1919527;74;21079;-46
2023/03/05 00:31:38;;;;;;;1.70;1.32;;;;;;;7.26;77.18;100893.22;1917032;74;21063;-47
2023/03/05 00:34:10;;;;;;;3.72;1.20;;;;;;;7.34;77.43;100895.23;1911849;74;21564;-46
2023/03/05 00:36:45;;;;;;;2.37;1.30;;;;;;;7.41;77.42;100895.94;1905425;74;20992;-48
2023/03/05 00:39:14;;;;;;;1.92;1.10;;;;;;;7.45;77.21;100879.27;1924160;74;20992;-47
2023/03/05 00:41:43;;;;;;;3.00;1.60;;;;;;;7.50;77.24;100900.11;1903165;74;21015;-47
2023/03/05 00:44:13;;;;;;;2.15;1.02;;;;;;;7.52;77.19;100895.26;1923608;74;21129;-46
2023/03/05 00:46:41;;;;;;;4.90;3.37;;;;;;;7.55;77.06;100899.55;1900631;74;21095;-47
2023/03/05 00:49:10;;;;;;;4.22;2.90;;;;;;;7.57;77.20;100882.48;1909112;74;20980;-49
2023/03/05 00:51:39;;;;;;;8.73;5.15;;;;;;;7.56;77.13;100892.55;1903132;74;21592;-47
2023/03/05 00:54:08;;;;;;;7.08;3.77;;;;;;;7.58;77.15;100875.02;1905348;74;21133;-45
2023/03/05 00:56:37;;;;;;;5.05;2.62;;;;;;;7.56;77.04;100889.47;1900973;74;21449;-46
2023/03/05 00:59:06;;;;;;;4.55;2.52;;;;;;;7.56;77.30;100898.64;1922744;74;21024;-46
2023/03/05 01:01:34;;;;;;;1.42;1.07;;;;;;;7.57;77.31;100896.45;1899935;74;21051;-47
2023/03/05 01:04:03;;;;;;;4.45;1.20;;;;;;;7.59;77.39;100899.88;1906145;74;21479;-46
2023/03/05 01:06:32;;;;;;;4.50;1.50;;;;;;;7.63;77.41;100890.19;1924501;74;21008;-44
2023/03/05 01:09:01;;;;;;;3.10;1.50;;;;;;;7.67;77.38;100892.72;1908098;74;21045;-53
2023/03/05 01:11:30;;;;;;;4.83;1.77;;;;;;;7.68;77.39;100906.21;1891236;76;21051;-46
2023/03/05 01:13:59;;;;;;;2.10;1.15;;;;;;;7.70;77.24;100888.69;1893538;74;21043;-45
2023/03/05 01:16:28;;;;;;;3.05;1.72;;;;;;;7.74;77.15;100902.13;1891357;76;21051;-49
2023/03/05 01:18:57;;;;;;;5.55;1.22;;;;;;;7.77;77.25;100882.00;1891428;75;21050;-47
2023/03/05 01:21:25;;;;;;;1.67;0.88;;;;;;;7.80;77.12;100898.94;1893526;74;21031;-48
2023/03/05 01:23:55;;;;;;;2.42;1.00;;;;;;;7.81;76.93;100904.61;1891314;75;21192;-47
2023/03/05 01:26:23;;;;;;;5.00;1.50;;;;;;;7.80;76.82;100903.76;1891400;76;21055;-47
2023/03/05 01:28:52;;;;;;;2.42;1.20;;;;;;;7.80;76.92;100904.19;1891351;76;21152;-47
2023/03/05 01:31:21;;;;;;;2.98;1.12;;;;;;;7.79;76.94;100903.79;1891643;74;21027;-46
2023/03/05 01:33:52;;;;;;;2.22;1.05;;;;;;;7.77;77.00;100895.96;1923054;74;20992;-49
2023/03/05 01:36:23;;;;;;;1.27;1.00;;;;;;;7.78;77.25;100894.19;1924396;74;21036;-47
2023/03/05 01:38:52;;;;;;;5.05;2.00;;;;;;;7.78;77.54;100887.18;1924581;74;21089;-45
2023/03/05 01:41:21;;;;;;;3.45;2.05;;;;;;;7.75;77.63;100896.45;1924522;74;21506;-49
2023/03/05 01:43:51;;;;;;;2.62;1.40;;;;;;;7.73;78.00;100889.93;1922245;74;21019;-50
2023/03/05 01:46:29;;;;;;;1.32;0.72;;;;;;;7.67;78.35;100903.20;1924633;74;21512;-50
2023/03/05 01:49:19;;;;;;;8.35;4.67;;;;;;;7.64;78.73;100908.50;1924412;74;21475;-48
2023/03/05 01:51:56;;;;;;;2.45;1.30;;;;;;;7.61;78.69;100898.55;1916710;74;21031;-48
2023/03/05 01:54:31;;;;;;;2.92;1.25;;;;;;;7.58;78.60;100895.56;1921313;74;21063;-50
2023/03/05 01:57:02;;;;;;;1.72;1.10;;;;;;;7.54;78.85;100903.94;1924516;74;21028;-47
2023/03/05 01:59:32;;;;;;;3.80;1.10;;;;;;;7.51;79.07;100899.22;1891339;76;21200;-48
2023/03/05 02:02:02;;;;;;;1.17;0.90;;;;;;;7.51;79.47;100901.84;1891493;76;21097;-49
2023/03/05 02:04:34;;;;;;;1.50;0.80;;;;;;;7.51;79.55;100907.08;1908681;74;21459;-49
2023/03/05 02:07:03;;;;;;;2.45;1.55;;;;;;;7.50;79.85;100907.97;1901269;74;21109;-47
2023/03/05 02:09:32;;;;;;;4.58;1.27;;;;;;;7.50;80.15;100898.80;1891475;75;21498;-49
2023/03/05 02:12:00;;;;;;;2.70;1.30;;;;;;;7.50;80.05;100915.83;1891410;76;21180;-46
2023/03/05 02:14:29;;;;;;;3.67;1.90;;;;;;;7.51;80.07;100899.22;1893568;74;21032;-47
2023/03/05 02:16:58;;;;;;;6.83;2.33;;;;;;;7.52;79.99;100900.50;1891564;76;21041;-50
2023/03/05 02:19:27;;;;;;;5.25;1.62;;;;;;;7.52;80.17;100903.55;1891350;76;21145;-51
2023/03/05 02:21:55;;;;;;;5.08;1.85;;;;;;;7.52;80.24;100907.05;1891233;76;21148;-49
2023/03/05 02:24:37;;;;;;;6.55;2.65;;;;;;;7.52;80.01;100906.16;1892167;74;21043;-49
2023/03/05 02:27:07;;;;;;;4.22;1.77;;;;;;;7.51;80.12;100899.22;1891328;76;21623;-49
2023/03/05 02:29:39;;;;;;;4.40;1.80;;;;;;;7.52;80.21;100902.23;1885299;75;21612;-50
2023/03/05 02:32:08;;;;;;;2.67;1.47;;;;;;;7.53;80.14;100907.91;1872732;75;21106;-45
2023/03/05 02:34:37;;;;;;;6.87;1.90;;;;;;;7.52;79.97;100901.81;1872829;77;21459;-47
2023/03/05 02:37:08;;;;;;;5.83;2.40;;;;;;;7.53;79.99;100906.59;1900671;75;21503;-46
2023/03/05 02:39:38;;;;;;;4.17;1.87;;;;;;;7.56;79.80;100905.19;1905194;75;21049;-48
2023/03/05 02:42:07;;;;;;;5.28;1.90;;;;;;;7.59;79.56;100913.45;1905311;75;21475;-43
2023/03/05 02:44:36;;;;;;;4.47;2.22;;;;;;;7.60;79.52;100917.34;1905363;75;21444;-46
2023/03/05 02:47:05;;;;;;;4.30;1.55;;;;;;;7.61;79.45;100916.43;1902813;74;21101;-47
2023/03/05 02:49:35;;;;;;;7.85;4.05;;;;;;;7.64;79.31;100912.44;1905322;74;21001;-46
2023/03/05 02:52:05;;;;;;;4.53;2.75;;;;;;;7.66;79.12;100911.95;1897962;75;21456;-47
2023/03/05 02:54:33;;;;;;;5.22;1.98;;;;;;;7.69;78.95;100911.00;1873455;75;21044;-48
2023/03/05 02:57:04;;;;;;;8.93;2.55;;;;;;;7.71;78.78;100911.39;1905674;75;21091;-47
2023/03/05 02:59:32;;;;;;;7.83;3.37;;;;;;;7.74;78.64;100914.38;1905864;75;21502;-49
2023/03/05 03:02:01;;;;;;;10.75;3.72;;;;;;;7.76;78.41;100906.48;1905725;75;21561;-45
2023/03/05 03:04:31;;;;;;;4.55;2.12;;;;;;;7.78;78.24;100908.61;1905846;75;21101;-45
2023/03/05 03:06:59;;;;;;;7.72;3.15;;;;;;;7.80;78.11;100910.73;1877959;75;21025;-46
2023/03/05 03:09:28;;;;;;;6.90;2.50;;;;;;;7.81;77.98;100907.23;1872928;77;21093;-49
2023/03/05 03:11:56;;;;;;;7.17;3.27;;;;;;;7.82;77.82;100904.58;1872840;75;21043;-46
2023/03/05 03:14:25;;;;;;;6.22;3.33;;;;;;;7.84;77.75;100907.13;1872735;76;21028;-54
2023/03/05 03:16:54;;;;;;;8.45;2.95;;;;;;;7.86;77.63;100905.36;1875072;75;21020;-44
2023/03/05 03:19:22;;;;;;;9.58;4.25;;;;;;;7.88;77.52;100912.73;1872905;77;21028;-44
2023/03/05 03:21:53;;;;;;;6.28;2.47;;;;;;;7.89;77.38;100907.46;1872798;77;21102;-51
2023/03/05 03:24:21;;;;;;;6.40;2.87;;;;;;;7.91;77.26;100907.39;1872868;77;21153;-49
2023/03/05 03:26:50;;;;;;;4.25;2.37;;;;;;;7.90;77.07;100901.30;1874829;75;21027;-49
2023/03/05 03:29:19;;;;;;;4.90;2.65;;;;;;;7.92;76.95;100905.20;1872706;77;21109;-51
2023/03/05 03:31:47;;;;;;;10.05;3.17;;;;;;;7.92;76.85;100903.89;1872989;75;21145;-52
2023/03/05 03:34:17;;;;;;;8.68;4.05;;;;;;;7.94;76.73;100899.46;1872751;76;21052;-48
2023/03/05 03:36:46;;;;;;;9.90;4.65;;;;;;;7.96;76.63;100912.54;1874262;75;21471;-47
2023/03/05 03:39:16;;;;;;;5.10;2.58;;;;;;;7.95;76.51;100906.44;1872501;76;21020;-47
2023/03/05 03:41:47;;;;;;;5.75;2.45;;;;;;;7.95;76.42;100910.80;1877855;75;21668;-47
2023/03/05 03:44:19;;;;;;;7.17;3.27;;;;;;;7.95;76.37;100905.56;1905341;74;21106;-48
2023/03/05 03:46:50;;;;;;;7.15;2.95;;;;;;;7.96;76.30;100896.81;1905305;75;21021;-47
2023/03/05 03:49:21;;;;;;;7.17;3.90;;;;;;;7.96;76.17;100900.28;1880348;75;21475;-47
2023/03/05 03:51:53;;;;;;;9.78;4.47;;;;;;;7.98;76.05;100898.48;1872587;77;21043;-46
2023/03/05 03:54:22;;;;;;;7.83;3.37;;;;;;;8.00;75.96;100905.84;1872735;77;21016;-47
2023/03/05 03:56:51;;;;;;;10.30;2.52;;;;;;;7.99;75.86;100908.08;1903960;75;21122;-46
2023/03/05 03:59:20;;;;;;;9.38;2.87;;;;;;;8.01;75.82;100907.59;1905140;75;21028;-47
2023/03/05 04:01:48;;;;;;;6.28;2.85;;;;;;;8.02;75.76;100909.75;1905312;75;21118;-47
2023/03/05 04:04:17;;;;;;;13.35;3.90;;;;;;;7.99;75.68;100906.77;1905222;75;21036;-47
2023/03/05 04:06:45;;;;;;;7.33;3.75;;;;;;;7.99;75.65;100904.14;1902842;75;20997;-48
2023/03/05 04:09:14;;;;;;;9.15;3.02;;;;;;;8.00;75.60;100900.61;1893443;75;21106;-46
2023/03/05 04:11:43;;;;;;;7.72;3.45;;;;;;;8.01;75.58;100907.59;1872935;77;21004;-47
2023/03/05 04:14:12;;;;;;;13.85;2.75;;;;;;;8.03;75.49;100907.09;1872811;77;21032;-46
2023/03/05 04:16:40;;;;;;;7.28;2.75;;;;;;;8.03;75.40;100901.84;1887027;75;21116;-46
2023/03/05 04:19:10;;;;;;;7.47;2.12;;;;;;;8.06;75.33;100908.77;1905104;75;21463;-94
2023/03/05 04:21:39;;;;;;;9.38;4.12;;;;;;;8.05;75.27;100881.69;1905207;75;20992;-46
2023/03/05 04:24:08;;;;;;;4.03;2.12;;;;;;;8.08;74.90;100892.11;1905280;75;21154;-47
2023/03/05 04:26:37;;;;;;;9.75;2.45;;;;;;;8.10;74.65;100913.91;1900194;75;21047;-46
2023/03/05 04:29:06;;;;;;;5.67;3.05;;;;;;;8.10;74.45;100911.28;1872788;77;21071;-45
2023/03/05 04:31:34;;;;;;;3.02;1.87;;;;;;;8.12;74.38;100906.00;1882155;75;21156;-47
2023/03/05 04:34:03;;;;;;;6.50;2.25;;;;;;;8.14;74.16;100909.91;1891516;76;21043;-45
2023/03/05 04:36:31;;;;;;;8.40;3.40;;;;;;;8.14;74.15;100911.21;1891330;76;21105;-45
2023/03/05 04:39:00;;;;;;;9.48;3.37;;;;;;;8.15;74.03;100918.16;1892857;74;21100;-44
2023/03/05 04:41:28;;;;;;;7.37;2.35;;;;;;;8.15;73.88;100907.67;1891405;76;21027;-45
2023/03/05 04:43:57;;;;;;;3.62;1.07;;;;;;;8.16;73.70;100919.89;1891288;76;21093;-46
2023/03/05 04:46:26;;;;;;;2.65;1.65;;;;;;;8.18;73.65;100924.65;1891355;76;21035;-45
2023/03/05 04:48:55;;;;;;;7.37;2.35;;;;;;;8.18;73.61;100915.47;1914769;74;21004;-46
2023/03/05 04:51:23;;;;;;;9.43;2.83;;;;;;;8.17;73.59;100920.29;1924590;74;21463;-45
2023/03/05 04:53:52;;;;;;;6.03;2.30;;;;;;;8.19;73.59;100922.42;1924679;74;21110;-44
2023/03/05 04:56:21;;;;;;;5.47;2.30;;;;;;;8.20;73.61;100918.91;1899206;74;21101;-44
2023/03/05 04:58:49;;;;;;;8.80;3.33;;;;;;;8.22;73.58;100918.41;1896370;74;20999;-47
2023/03/05 05:01:18;;;;;;;5.47;2.95;;;;;;;8.27;73.48;100908.67;1891333;75;21153;-46
2023/03/05 05:03:47;;;;;;;3.75;2.27;;;;;;;8.29;73.28;100915.58;1891396;76;21102;-47
2023/03/05 05:06:15;;;;;;;10.55;5.22;;;;;;;8.32;72.84;100917.28;1899797;74;21475;-47
2023/03/05 05:08:44;;;;;;;12.30;4.58;;;;;;;8.34;72.54;100911.54;1906096;74;21027;-48
2023/03/05 05:11:14;;;;;;;8.80;3.33;;;;;;;8.37;72.36;100912.74;1924470;74;21028;-46
2023/03/05 05:13:43;;;;;;;11.12;3.87;;;;;;;8.40;72.35;100917.92;1924682;74;21025;-44
2023/03/05 05:16:11;;;;;;;11.15;3.42;;;;;;;8.42;72.18;100933.20;1912393;74;21015;-45
2023/03/05 05:18:40;;;;;;;6.67;2.67;;;;;;;8.41;72.13;100930.16;1891504;75;21125;-47
2023/03/05 05:21:10;;;;;;;6.83;2.67;;;;;;;8.38;72.23;100931.53;1891377;75;21079;-48
2023/03/05 05:23:39;;;;;;;7.30;3.15;;;;;;;8.35;72.32;100938.63;1891377;76;21019;-47
2023/03/05 05:26:13;;;;;;;9.98;3.58;;;;;;;8.37;72.41;100938.98;1892702;74;21474;-48
2023/03/05 05:28:44;;;;;;;5.35;2.27;;;;;;;8.35;72.73;100918.48;1891380;75;21113;-47
2023/03/05 05:31:15;;;;;;;8.98;2.75;;;;;;;8.28;73.33;100934.86;1889987;75;21101;-49
2023/03/05 05:33:45;;;;;;;8.38;3.15;;;;;;;8.28;73.33;100934.86;1872660;76;21162;-48
2023/03/05 05:36:18;;;;;;;5.87;2.30;;;;;;;8.29;73.39;100947.06;1872695;77;21177;-46
2023/03/05 05:38:46;;;;;;;6.87;2.75;;;;;;;8.29;73.60;100949.69;1897803;75;21144;-49
2023/03/05 05:41:17;;;;;;;9.95;5.08;;;;;;;8.29;73.72;100955.39;1872607;77;21113;-48
2023/03/05 05:43:46;;;;;;;10.72;3.60;;;;;;;8.30;74.02;100952.73;1872595;77;21000;-45
2023/03/05 05:46:17;;;;;;;5.12;2.50;;;;;;;8.30;74.18;100954.05;1870864;75;21105;-46
2023/03/05 05:48:47;;;;;;;15.95;5.12;;;;;;;8.31;74.33;100950.50;1881980;75;21040;-45
2023/03/05 05:51:21;;;;;;;8.95;3.60;;;;;;;8.35;74.31;100957.84;1872716;76;21523;-53
2023/03/05 05:53:50;;;;;;;9.45;4.53;;;;;;;8.46;74.49;100949.27;1872565;77;21098;-46
2023/03/05 05:56:19;;;;;;;9.53;3.55;;;;;;;8.60;74.37;100951.53;1899333;75;21506;-47
2023/03/05 05:58:49;;;;;;;16.57;6.00;;;;;;;8.89;74.12;100950.72;1879258;75;21463;-47
2023/03/05 06:01:20;;;;;;;9.38;5.20;;;;;;;8.97;73.77;100949.64;1872632;76;21111;-45
2023/03/05 06:03:49;;;;;;;14.50;6.30;;;;;;;9.08;73.55;100948.41;1872739;76;21008;-45
2023/03/05 06:06:20;;;;;;;12.28;4.60;;;;;;;9.26;73.40;100944.38;1874822;75;21115;-47
2023/03/05 06:08:50;;;;;;;8.25;3.15;;;;;;;9.46;72.85;100945.09;1872687;77;21045;-45
2023/03/05 06:11:19;;;;;;;8.10;2.65;;;;;;;9.50;72.38;100927.88;1872757;77;21517;-44
2023/03/05 06:13:49;;;;;;;5.62;3.20;;;;;;;9.62;71.66;100947.22;1872786;77;21451;-44
2023/03/05 06:16:20;;;;;;;7.67;4.42;;;;;;;9.64;71.49;100937.52;1879874;75;21706;-44
2023/03/05 06:18:49;;;;;;;8.40;3.47;;;;;;;9.62;71.37;100938.87;1893892;75;21090;-45
2023/03/05 06:21:20;;;;;;;8.03;3.92;;;;;;;9.62;71.34;100943.28;1905763;74;21039;-45
2023/03/05 06:23:49;;;;;;;5.62;2.47;;;;;;;9.63;71.06;100945.86;1905854;75;21023;-45
2023/03/05 06:26:20;;;;;;;8.33;4.03;;;;;;;9.63;70.83;100948.49;1900717;74;21099;-44
2023/03/05 06:28:49;;;;;;;8.58;3.92;;;;;;;9.65;70.64;100923.01;1876545;75;21004;-44
2023/03/05 06:31:21;;;;;;;6.12;2.20;;;;;;;9.82;70.50;100942.64;1872798;77;21514;-44
2023/03/05 06:33:51;;;;;;;7.28;3.75;;;;;;;9.85;70.47;100944.72;1888398;75;21510;-44
2023/03/05 06:36:21;;;;;;;7.12;3.37;;;;;;;10.27;70.62;100943.77;1891437;76;21494;-44
2023/03/05 06:38:52;;;;;;;5.50;2.45;;;;;;;10.23;69.94;100949.59;1892085;74;21116;-47
2023/03/05 06:41:23;;;;;;;6.20;2.72;;;;;;;10.03;69.91;100958.16;1891402;76;21008;-47
2023/03/05 06:43:52;;;;;;;8.13;3.83;;;;;;;9.84;70.33;100960.08;1891392;76;21004;-46
2023/03/05 06:46:23;;;;;;;6.75;2.77;;;;;;;9.74;70.69;100957.36;1891516;76;21007;-47
2023/03/05 06:48:54;;;;;;;10.35;3.27;;;;;;;9.69;70.95;100955.79;1901232;74;21016;-45
2023/03/05 06:51:25;;;;;;;11.68;3.35;;;;;;;9.85;71.11;100945.18;1900513;74;21479;-46
2023/03/05 06:53:55;;;;;;;7.35;2.62;;;;;;;9.97;71.20;100951.80;1895324;74;20999;-45
2023/03/05 06:56:24;;;;;;;16.57;4.28;;;;;;;10.30;71.12;100947.16;1895722;74;21027;-46
2023/03/05 06:58:53;;;;;;;6.70;4.17;;;;;;;11.38;70.10;100949.38;1890911;74;21105;-47
2023/03/05 07:01:22;;;;;;;7.70;3.22;;;;;;;12.70;67.08;100953.59;1909315;74;21097;-50
2023/03/05 07:03:53;;;;;;;15.75;4.83;;;;;;;13.40;63.20;100925.34;1914580;74;21458;-47
2023/03/05 07:06:22;;;;;;;7.12;2.72;;;;;;;13.43;61.27;100947.21;1891499;75;21039;-46
2023/03/05 07:08:52;;;;;;;6.87;2.80;;;;;;;13.24;61.56;100948.96;1907303;74;21497;-46
2023/03/05 07:11:22;;;;;;;7.12;3.52;;;;;;;13.71;60.44;100922.06;1924532;74;21474;-46
2023/03/05 07:13:51;;;;;;;5.42;3.02;;;;;;;14.33;58.20;100920.27;1898278;74;21543;-49
2023/03/05 07:16:23;;;;;;;5.92;3.05;;;;;;;14.24;58.00;100922.48;1891400;76;21078;-53
2023/03/05 07:18:53;;;;;;;6.67;3.00;;;;;;;14.25;57.63;100936.09;1892567;74;21039;-53
2023/03/05 07:21:24;;;;;;;8.55;2.92;;;;;;;13.90;57.85;100950.64;1891505;76;21431;-51
2023/03/05 07:23:58;;;;;;;7.85;3.37;;;;;;;13.07;58.85;100936.06;1891557;76;21039;-46
2023/03/05 07:26:29;;;;;;;5.62;2.83;;;;;;;12.43;60.09;100941.59;1891276;76;21031;-53
2023/03/05 07:28:58;;;;;;;7.78;2.60;;;;;;;11.71;61.18;100956.00;1892876;74;21055;-48
2023/03/05 07:31:29;;;;;;;6.33;3.40;;;;;;;11.31;62.53;100957.59;1891339;76;21047;-48
2023/03/05 07:33:58;;;;;;;9.80;4.25;;;;;;;10.95;63.84;100958.05;1880230;76;21193;-46
2023/03/05 07:36:27;;;;;;;6.55;3.35;;;;;;;10.68;65.01;100952.89;1872774;77;21118;-46
2023/03/05 07:38:56;;;;;;;6.05;3.17;;;;;;;10.64;65.60;100959.16;1884459;75;21133;-48
2023/03/05 07:41:24;;;;;;;9.63;4.00;;;;;;;10.55;66.33;100923.94;1905134;75;21111;-47
2023/03/05 07:43:54;;;;;;;10.13;4.17;;;;;;;10.43;66.71;100955.06;1905207;75;21134;-48
2023/03/05 07:46:29;;;;;;;5.37;2.22;;;;;;;10.41;67.55;100952.94;1905203;75;21541;-48
2023/03/05 07:48:58;;;;;;;8.80;3.90;;;;;;;10.27;67.74;100961.73;1894200;74;21033;-47
2023/03/05 07:51:27;;;;;;;9.98;3.50;;;;;;;10.14;67.91;100965.23;1874286;75;21049;-47
2023/03/05 07:53:58;;;;;;;4.25;2.72;;;;;;;10.03;68.41;100936.68;1884148;75;21480;-49
2023/03/05 07:56:30;;;;;;;6.28;3.08;;;;;;;10.08;68.51;100919.88;1876942;75;21006;-47
2023/03/05 07:59:00;;;;;;;7.70;4.30;;;;;;;10.23;68.48;100932.03;1886148;75;21173;-46
2023/03/05 08:01:30;;;;;;;5.62;3.40;;;;;;;10.59;68.07;100937.42;1903284;75;21138;-48
2023/03/05 08:03:59;;;;;;;6.87;3.20;;;;;;;10.72;67.20;100914.14;1879592;75;21084;-46
2023/03/05 08:06:28;;;;;;;9.33;3.60;;;;;;;10.76;67.06;100932.39;1872630;77;21027;-47
2023/03/05 08:08:58;;;;;;;9.60;4.10;;;;;;;10.77;67.05;100938.08;1872873;76;21056;-46
2023/03/05 08:11:27;;;;;;;9.98;4.05;;;;;;;10.85;66.92;100929.03;1874288;75;21125;-50
2023/03/05 08:13:58;;;;;;;8.88;2.55;;;;;;;10.79;66.59;100924.38;1892881;75;21102;-44
2023/03/05 08:16:27;;;;;;;11.35;4.50;;;;;;;10.76;66.68;100929.75;1913462;75;21418;-46
2023/03/05 08:18:57;;;;;;;8.35;4.08;;;;;;;10.69;66.93;100922.99;1907433;75;21020;-46
2023/03/05 08:21:36;;;;;;;12.68;5.08;;;;;;;10.58;67.20;100928.64;1872760;76;21106;-45
2023/03/05 08:24:07;;;;;;;11.63;5.03;;;;;;;10.38;67.62;100926.75;1873232;75;21546;-45
2023/03/05 08:26:37;;;;;;;11.95;6.42;;;;;;;10.24;68.41;100917.12;1872631;76;21018;-47
2023/03/05 08:29:07;;;;;;;9.13;3.20;;;;;;;10.13;69.16;100908.28;1872652;77;21088;-46
2023/03/05 08:31:37;;;;;;;11.65;4.72;;;;;;;10.03;69.43;100920.89;1872605;77;21596;-45
2023/03/05 08:34:06;;;;;;;8.33;4.62;;;;;;;10.00;69.58;100940.72;1875950;75;21467;-49
2023/03/05 08:36:35;;;;;;;12.73;7.12;;;;;;;9.96;69.73;100927.27;1883566;75;21020;-53
2023/03/05 08:39:05;;;;;;;9.40;4.62;;;;;;;9.96;70.10;100900.97;1897705;75;21024;-47
2023/03/05 08:41:34;;;;;;;7.17;3.40;;;;;;;9.96;70.21;100889.13;1889256;75;21004;-46
2023/03/05 08:44:03;;;;;;;9.20;4.37;;;;;;;10.09;70.14;100916.31;1890272;75;21126;-45
2023/03/05 08:46:32;;;;;;;9.70;4.15;;;;;;;10.61;69.44;100914.52;1908367;75;21109;-50
2023/03/05 08:49:01;;;;;;;9.78;4.47;;;;;;;10.67;68.62;100916.92;1899715;75;21133;-56
2023/03/05 08:51:29;;;;;;;8.30;4.75;;;;;;;10.60;68.19;100918.06;1888799;75;21098;-47
2023/03/05 08:54:00;;;;;;;8.43;3.00;;;;;;;10.56;68.04;100907.25;1896518;75;21108;-52
2023/03/05 08:56:30;;;;;;;6.95;2.72;;;;;;;10.55;67.83;100921.31;1893781;75;21158;-55
2023/03/05 08:58:58;;;;;;;9.00;3.37;;;;;;;10.56;67.61;100914.67;1896532;75;21153;-56
2023/03/05 09:01:27;;;;;;;9.98;4.10;;;;;;;10.50;67.64;100923.27;1899163;75;21097;-55
2023/03/05 09:03:56;;;;;;;5.53;2.47;;;;;;;10.48;67.69;100911.94;1897345;75;21016;-53
2023/03/05 09:06:25;;;;;;;11.28;3.75;;;;;;;10.47;67.84;100911.06;1898951;75;21099;-52
2023/03/05 09:08:55;;;;;;;5.10;2.90;;;;;;;10.57;67.92;100906.34;1897206;75;21530;-53
2023/03/05 09:11:23;;;;;;;8.90;3.30;;;;;;;10.91;67.70;100910.35;1882030;76;21455;-49
2023/03/05 09:13:52;;;;;;;5.62;2.58;;;;;;;11.01;67.30;100907.75;1891096;75;21020;-53
2023/03/05 09:16:21;;;;;;;6.78;2.55;;;;;;;11.06;67.14;100911.08;1882237;76;21092;-51
2023/03/05 09:18:49;;;;;;;4.92;2.60;;;;;;;11.10;67.35;100913.13;1884155;75;21043;-52
2023/03/05 09:21:18;;;;;;;9.68;2.83;;;;;;;11.14;67.21;100891.01;1882258;76;21110;-49
2023/03/05 09:23:47;;;;;;;9.70;2.90;;;;;;;11.16;66.75;100907.65;1882151;76;21051;-47
2023/03/05 09:26:18;;;;;;;7.50;2.77;;;;;;;11.32;66.60;100896.02;1884607;75;21188;-53
2023/03/05 09:28:47;;;;;;;5.42;2.80;;;;;;;11.38;66.20;100901.08;1904593;75;21059;-47
2023/03/05 09:31:16;;;;;;;14.20;4.45;;;;;;;11.41;65.75;100879.84;1882069;76;21660;-51
2023/03/05 09:33:45;;;;;;;8.63;4.65;;;;;;;11.46;65.44;100866.48;1863051;76;21110;-52
2023/03/05 09:36:26;;;;;;;4.85;2.80;;;;;;;11.52;65.55;100886.85;1855170;76;21157;-48
2023/03/05 09:38:55;;;;;;;6.28;2.37;;;;;;;11.66;65.22;100894.69;1843809;77;21053;-52
2023/03/05 09:41:57;;;;;;;7.65;3.55;;;;;;;11.80;65.01;100887.03;1841591;77;21030;-49
2023/03/05 09:44:49;;;;;;;11.40;2.75;;;;;;;12.05;64.23;100884.26;1855935;77;21517;-48
2023/03/05 09:47:45;;;;;;;5.67;2.92;;;;;;;12.07;64.12;100889.48;1872152;77;21149;-57
2023/03/05 09:50:34;;;;;;;7.28;3.40;;;;;;;11.90;64.49;100883.13;1844015;77;21570;-49
2023/03/05 09:53:15;;;;;;;8.88;3.17;;;;;;;12.03;64.66;100886.58;1866850;77;21096;-49
2023/03/05 09:55:47;;;;;;;5.72;3.37;;;;;;;12.03;64.31;100868.11;1841652;77;21661;-47
2023/03/05 09:58:28;;;;;;;5.97;2.33;;;;;;;11.87;64.65;100864.75;1846121;77;21170;-51
2023/03/05 10:00:59;;;;;;;9.40;2.90;;;;;;;11.70;64.86;100865.94;1831577;77;21102;-53
2023/03/05 10:03:46;;;;;;;7.53;2.40;;;;;;;11.59;65.13;100865.91;1872817;77;21036;-48
2023/03/05 10:06:32;;;;;;;6.87;3.05;;;;;;;11.55;65.03;100864.32;1804319;77;21043;-49
2023/03/05 10:09:09;;;;;;;7.92;1.90;;;;;;;11.50;65.28;100853.09;1849392;77;21000;-52
2023/03/05 10:11:52;;;;;;;10.50;4.05;;;;;;;11.41;65.35;100869.30;1872853;76;21040;-50
2023/03/05 10:14:41;;;;;;;5.67;2.58;;;;;;;11.31;65.45;100842.92;1872141;76;21075;-48
2023/03/05 10:17:36;;;;;;;4.53;2.45;;;;;;;11.15;65.71;100853.21;1869366;76;21439;-51
2023/03/05 10:20:27;;;;;;;4.92;2.87;;;;;;;10.96;66.16;100846.49;1792041;77;21111;-52
2023/03/05 10:23:18;;;;;;;4.85;2.47;;;;;;;10.88;66.68;100835.38;1805098;78;21224;-48
2023/03/05 10:26:14;;;;;;;6.80;2.70;;;;;;;10.75;67.10;100856.06;1823847;77;21117;-47
2023/03/05 10:28:54;;;;;;;8.53;3.47;;;;;;;10.73;67.61;100827.61;1841835;77;21051;-53
2023/03/05 10:31:29;;;;;;;5.08;2.30;;;;;;;10.66;67.68;100846.75;1841352;77;21040;-49
2023/03/05 10:34:06;;;;;;;9.70;3.85;;;;;;;10.57;68.03;100832.16;1862818;77;21118;-51
2023/03/05 10:36:40;;;;;;;6.70;2.92;;;;;;;10.52;68.31;100821.39;1785338;76;21079;-48
2023/03/05 10:39:13;;;;;;;10.18;3.35;;;;;;;10.47;68.50;100837.81;1861165;76;21494;-49
2023/03/05 10:41:47;;;;;;;5.40;2.45;;;;;;;10.43;68.65;100844.50;1849149;76;21526;-50
2023/03/05 10:44:24;;;;;;;9.85;5.17;;;;;;;10.43;69.14;100815.54;1872844;76;21064;-50
2023/03/05 10:46:54;;;;;;;4.85;3.02;;;;;;;10.52;69.16;100815.66;1871246;76;21036;-53
2023/03/05 10:49:31;;;;;;;5.15;2.92;;;;;;;10.61;69.01;100814.47;1864045;76;21131;-54
2023/03/05 10:52:12;;;;;;;6.10;3.05;;;;;;;10.69;68.77;100824.23;1841550;77;21049;-50
2023/03/05 10:54:42;;;;;;;7.17;3.08;;;;;;;10.69;68.73;100831.28;1856221;77;21117;-56
2023/03/05 10:57:19;;;;;;;5.03;2.40;;;;;;;10.73;68.79;100800.80;1871595;76;21785;-49
2023/03/05 10:59:51;;;;;;;4.95;2.15;;;;;;;10.74;68.51;100828.02;1856072;77;21048;-49
2023/03/05 11:02:21;;;;;;;13.03;2.00;;;;;;;10.72;68.41;100829.39;1872229;76;21040;-51
2023/03/05 11:04:51;;;;;;;8.83;3.92;;;;;;;10.67;68.46;100815.53;1845750;77;21424;-53
2023/03/05 11:07:23;;;;;;;6.42;1.80;;;;;;;10.70;68.51;100823.33;1849317;77;21126;-45
2023/03/05 11:10:06;;;;;;;11.60;2.80;;;;;;;10.79;68.46;100819.50;1872664;77;21040;-49
2023/03/05 11:12:37;;;;;;;5.00;3.30;;;;;;;10.91;68.26;100814.20;1872524;76;21569;-51
2023/03/05 11:15:11;;;;;;;8.30;3.33;;;;;;;10.92;67.84;100821.16;1870189;76;21020;-51
2023/03/05 11:17:43;;;;;;;6.58;3.77;;;;;;;10.82;67.74;100812.30;1839815;78;21459;-56
2023/03/05 11:20:24;;;;;;;7.55;3.65;;;;;;;10.86;67.81;100797.70;1839892;77;21356;-53
2023/03/05 11:23:04;;;;;;;5.42;3.08;;;;;;;10.80;67.74;100812.82;1866137;77;21115;-52
2023/03/05 11:25:35;;;;;;;16.23;2.95;;;;;;;10.77;67.91;100805.06;1867911;76;21020;-49
2023/03/05 11:28:04;;;;;;;5.97;2.75;;;;;;;10.81;67.91;100800.06;1871884;75;21028;-50
2023/03/05 11:30:36;;;;;;;5.85;3.98;;;;;;;10.78;67.88;100794.91;1867674;76;21132;-55
2023/03/05 11:33:19;;;;;;;7.08;2.80;;;;;;;10.76;67.89;100802.02;1848148;77;21047;-53
2023/03/05 11:35:49;;;;;;;5.22;2.98;;;;;;;10.73;67.97;100792.91;1851802;77;21077;-47
2023/03/05 11:38:27;;;;;;;4.28;2.90;;;;;;;10.68;68.00;100808.05;1872530;77;21048;-48
2023/03/05 11:40:57;;;;;;;9.15;2.90;;;;;;;10.59;68.19;100805.77;1872674;77;21428;-53
2023/03/05 11:43:27;;;;;;;4.80;2.20;;;;;;;10.53;68.39;100816.52;1872581;77;21036;-53
2023/03/05 11:46:01;;;;;;;4.87;2.87;;;;;;;10.45;68.77;100805.42;1872786;77;21032;-48
2023/03/05 11:48:37;;;;;;;6.65;2.42;;;;;;;10.43;69.01;100807.64;1872586;76;21024;-46